createdAt,value
2017-01-05T00:00:19.572Z,22.45
2017-01-05T00:01:00.153Z,22.51
2017-01-05T00:01:40.744Z,22.49
2017-01-05T00:02:21.342Z,22.52
2017-01-05T00:03:01.941Z,22.46
2017-01-05T00:03:42.551Z,22.54
2017-01-05T00:04:23.152Z,22.47
2017-01-05T00:05:03.755Z,22.46
2017-01-05T00:05:44.340Z,22.52
2017-01-05T00:06:24.936Z,22.57
2017-01-05T00:07:05.520Z,22.46
2017-01-05T00:07:46.098Z,22.54
2017-01-05T00:08:26.722Z,22.47
2017-01-05T00:09:07.309Z,22.52
2017-01-05T00:09:47.922Z,22.49
2017-01-05T00:10:28.520Z,22.47
2017-01-05T00:11:09.113Z,22.51
2017-01-05T00:11:49.689Z,22.55
2017-01-05T00:12:30.280Z,22.47
2017-01-05T00:13:10.878Z,22.54
2017-01-05T00:13:51.450Z,22.46
2017-01-05T00:14:32.024Z,22.42
2017-01-05T00:15:12.624Z,22.39
2017-01-05T00:15:53.210Z,22.49
2017-01-05T00:16:33.793Z,22.51
2017-01-05T00:17:14.383Z,22.51
2017-01-05T00:17:54.964Z,22.51
2017-01-05T00:18:35.547Z,22.42
2017-01-05T00:19:16.152Z,22.43
2017-01-05T00:19:56.741Z,22.45
2017-01-05T00:20:37.323Z,22.46
2017-01-05T00:21:17.912Z,22.51
2017-01-05T00:21:58.505Z,22.49
2017-01-05T00:22:39.093Z,22.54
2017-01-05T00:23:19.689Z,22.51
2017-01-05T00:24:00.277Z,22.47
2017-01-05T00:24:40.858Z,22.46
2017-01-05T00:25:21.451Z,22.49
2017-01-05T00:26:02.054Z,22.46
2017-01-05T00:26:42.631Z,22.43
2017-01-05T00:27:23.216Z,22.42
2017-01-05T00:28:03.809Z,22.45
2017-01-05T00:28:44.401Z,22.47
2017-01-05T00:29:24.991Z,22.51
2017-01-05T00:30:06.422Z,22.42
2017-01-05T00:30:47.000Z,22.51
2017-01-05T00:31:27.594Z,22.46
2017-01-05T00:32:08.173Z,22.43
2017-01-05T00:32:48.767Z,22.51
2017-01-05T00:33:29.337Z,22.45
2017-01-05T00:34:09.920Z,22.47
2017-01-05T00:34:50.510Z,22.42
2017-01-05T00:35:31.095Z,22.51
2017-01-05T00:36:11.682Z,22.42
2017-01-05T00:36:52.282Z,22.43
2017-01-05T00:37:32.867Z,22.39
2017-01-05T00:38:13.452Z,22.47
2017-01-05T00:38:54.062Z,22.46
2017-01-05T00:39:34.662Z,22.49
2017-01-05T00:40:15.254Z,22.45
2017-01-05T00:40:55.839Z,22.43
2017-01-05T00:41:36.420Z,22.43
2017-01-05T00:42:17.016Z,22.43
2017-01-05T00:42:57.625Z,22.4
2017-01-05T00:43:38.239Z,22.37
2017-01-05T00:44:18.818Z,22.43
2017-01-05T00:44:59.425Z,22.43
2017-01-05T00:45:40.039Z,22.43
2017-01-05T00:46:20.630Z,22.46
2017-01-05T00:47:01.225Z,22.42
2017-01-05T00:47:41.817Z,22.43
2017-01-05T00:48:22.410Z,22.4
2017-01-05T00:49:02.996Z,22.4
2017-01-05T00:49:43.593Z,22.4
2017-01-05T00:50:24.184Z,22.45
2017-01-05T00:51:04.774Z,22.46
2017-01-05T00:51:45.370Z,22.39
2017-01-05T00:52:25.976Z,22.4
2017-01-05T00:53:06.558Z,22.39
2017-01-05T00:53:47.156Z,22.42
2017-01-05T00:54:27.751Z,22.35
2017-01-05T00:55:08.358Z,22.43
2017-01-05T00:55:48.958Z,22.39
2017-01-05T00:56:29.529Z,22.37
2017-01-05T00:57:10.119Z,22.4
2017-01-05T00:57:50.703Z,22.42
2017-01-05T00:58:31.299Z,22.43
2017-01-05T00:59:11.882Z,22.42
2017-01-05T00:59:52.461Z,22.4
2017-01-05T01:00:33.036Z,22.42
2017-01-05T01:01:13.624Z,22.42
2017-01-05T01:01:54.204Z,22.4
2017-01-05T01:02:34.789Z,22.45
2017-01-05T01:03:15.388Z,22.39
2017-01-05T01:03:55.969Z,22.37
2017-01-05T01:04:36.554Z,22.39
2017-01-05T01:05:17.141Z,22.39
2017-01-05T01:05:57.748Z,22.45
2017-01-05T01:06:38.332Z,22.4
2017-01-05T01:07:18.916Z,22.42
2017-01-05T01:07:59.512Z,22.39
2017-01-05T01:08:40.109Z,22.46
2017-01-05T01:09:20.688Z,22.4
2017-01-05T01:10:01.281Z,22.42
2017-01-05T01:10:41.867Z,22.42
2017-01-05T01:11:22.450Z,22.4
2017-01-05T01:12:03.044Z,22.43
2017-01-05T01:12:43.637Z,22.45
2017-01-05T01:13:24.222Z,22.43
2017-01-05T01:14:04.803Z,22.42
2017-01-05T01:14:45.380Z,22.35
2017-01-05T01:15:25.980Z,22.46
2017-01-05T01:16:06.562Z,22.39
2017-01-05T01:16:47.147Z,22.35
2017-01-05T01:17:27.734Z,22.39
2017-01-05T01:18:08.314Z,22.45
2017-01-05T01:18:48.896Z,22.42
2017-01-05T01:19:29.487Z,22.42
2017-01-05T01:20:10.078Z,22.39
2017-01-05T01:20:50.682Z,22.39
2017-01-05T01:21:31.262Z,22.39
2017-01-05T01:22:11.856Z,22.31
2017-01-05T01:22:52.444Z,22.37
2017-01-05T01:23:33.034Z,22.4
2017-01-05T01:24:13.618Z,22.4
2017-01-05T01:24:54.201Z,22.47
2017-01-05T01:25:34.788Z,22.43
2017-01-05T01:26:15.370Z,22.39
2017-01-05T01:26:55.955Z,22.36
2017-01-05T01:27:36.545Z,22.36
2017-01-05T01:28:17.165Z,22.43
2017-01-05T01:28:57.753Z,22.37
2017-01-05T01:29:38.346Z,22.45
2017-01-05T01:30:18.942Z,22.36
2017-01-05T01:30:59.524Z,22.37
2017-01-05T01:31:40.113Z,22.42
2017-01-05T01:32:20.717Z,22.39
2017-01-05T01:33:01.298Z,22.36
2017-01-05T01:33:41.893Z,22.33
2017-01-05T01:34:22.468Z,22.31
2017-01-05T01:35:03.061Z,22.43
2017-01-05T01:35:43.660Z,22.4
2017-01-05T01:36:24.233Z,22.42
2017-01-05T01:37:04.815Z,22.39
2017-01-05T01:37:45.404Z,22.4
2017-01-05T01:38:25.994Z,22.33
2017-01-05T01:39:06.593Z,22.43
2017-01-05T01:39:47.219Z,22.39
2017-01-05T01:40:27.812Z,22.33
2017-01-05T01:41:08.407Z,22.33
2017-01-05T01:41:49.013Z,22.43
2017-01-05T01:42:29.597Z,22.39
2017-01-05T01:43:10.180Z,22.37
2017-01-05T01:43:50.794Z,22.4
2017-01-05T01:44:31.385Z,22.39
2017-01-05T01:45:11.967Z,22.35
2017-01-05T01:45:52.554Z,22.43
2017-01-05T01:46:33.135Z,22.33
2017-01-05T01:47:13.716Z,22.31
2017-01-05T01:47:54.301Z,22.39
2017-01-05T01:48:34.913Z,22.43
2017-01-05T01:49:15.494Z,22.33
2017-01-05T01:49:56.085Z,22.42
2017-01-05T01:50:36.680Z,22.35
2017-01-05T01:51:17.271Z,22.39
2017-01-05T01:51:57.851Z,22.36
2017-01-05T01:52:38.451Z,22.36
2017-01-05T01:53:19.044Z,22.31
2017-01-05T01:53:59.620Z,22.39
2017-01-05T01:54:40.230Z,22.37
2017-01-05T01:55:20.815Z,22.36
2017-01-05T01:56:01.411Z,22.39
2017-01-05T01:56:42.002Z,22.28
2017-01-05T01:57:22.590Z,22.31
2017-01-05T01:58:03.178Z,22.37
2017-01-05T01:58:43.763Z,22.31
2017-01-05T01:59:24.349Z,22.35
2017-01-05T02:00:04.929Z,22.28
2017-01-05T02:00:45.515Z,22.27
2017-01-05T02:01:26.098Z,22.36
2017-01-05T02:02:06.693Z,22.22
2017-01-05T02:02:47.286Z,22.3
2017-01-05T02:03:27.867Z,22.36
2017-01-05T02:04:08.446Z,22.39
2017-01-05T02:04:49.036Z,22.37
2017-01-05T02:05:29.622Z,22.35
2017-01-05T02:06:10.206Z,22.3
2017-01-05T02:06:50.789Z,22.33
2017-01-05T02:07:31.378Z,22.28
2017-01-05T02:08:11.967Z,22.3
2017-01-05T02:08:52.565Z,22.28
2017-01-05T02:09:33.147Z,22.35
2017-01-05T02:10:13.738Z,22.35
2017-01-05T02:10:54.338Z,22.25
2017-01-05T02:11:34.913Z,22.31
2017-01-05T02:12:15.502Z,22.36
2017-01-05T02:12:56.096Z,22.3
2017-01-05T02:13:36.691Z,22.33
2017-01-05T02:14:17.268Z,22.42
2017-01-05T02:14:57.853Z,22.31
2017-01-05T02:15:38.454Z,22.3
2017-01-05T02:16:19.041Z,22.31
2017-01-05T02:16:59.617Z,22.27
2017-01-05T02:17:40.205Z,22.31
2017-01-05T02:18:20.784Z,22.31
2017-01-05T02:19:01.365Z,22.33
2017-01-05T02:19:41.948Z,22.27
2017-01-05T02:20:22.568Z,22.21
2017-01-05T02:21:03.154Z,22.3
2017-01-05T02:21:43.728Z,22.25
2017-01-05T02:22:24.324Z,22.3
2017-01-05T02:23:04.907Z,22.24
2017-01-05T02:23:45.507Z,22.27
2017-01-05T02:24:26.122Z,22.3
2017-01-05T02:25:06.716Z,22.31
2017-01-05T02:25:47.327Z,22.35
2017-01-05T02:26:27.908Z,22.28
2017-01-05T02:27:08.501Z,22.3
2017-01-05T02:27:49.090Z,22.27
2017-01-05T02:28:29.673Z,22.33
2017-01-05T02:29:10.279Z,22.33
2017-01-05T02:29:50.877Z,22.27
2017-01-05T02:30:31.489Z,22.3
2017-01-05T02:31:12.083Z,22.31
2017-01-05T02:31:52.686Z,22.28
2017-01-05T02:32:33.286Z,22.24
2017-01-05T02:33:13.883Z,22.3
2017-01-05T02:33:54.484Z,22.25
2017-01-05T02:34:35.054Z,22.35
2017-01-05T02:35:15.640Z,22.36
2017-01-05T02:35:56.241Z,22.31
2017-01-05T02:36:36.828Z,22.33
2017-01-05T02:37:17.405Z,22.28
2017-01-05T02:37:57.995Z,22.35
2017-01-05T02:38:38.585Z,22.33
2017-01-05T02:39:19.195Z,22.27
2017-01-05T02:39:59.788Z,22.28
2017-01-05T02:40:40.379Z,22.24
2017-01-05T02:41:20.970Z,22.25
2017-01-05T02:42:01.546Z,22.3
2017-01-05T02:42:42.137Z,22.27
2017-01-05T02:43:22.724Z,22.31
2017-01-05T02:44:03.319Z,22.3
2017-01-05T02:44:43.901Z,22.3
2017-01-05T02:45:24.482Z,22.3
2017-01-05T02:46:05.070Z,22.28
2017-01-05T02:46:45.665Z,22.27
2017-01-05T02:47:26.261Z,22.24
2017-01-05T02:48:06.873Z,22.28
2017-01-05T02:48:47.462Z,22.27
2017-01-05T02:49:28.050Z,22.25
2017-01-05T02:50:08.642Z,22.28
2017-01-05T02:50:49.235Z,22.28
2017-01-05T02:51:29.833Z,22.28
2017-01-05T02:52:10.437Z,22.35
2017-01-05T02:52:51.033Z,22.3
2017-01-05T02:53:31.624Z,22.31
2017-01-05T02:54:12.227Z,22.35
2017-01-05T02:54:52.825Z,22.22
2017-01-05T02:55:33.416Z,22.27
2017-01-05T02:56:14.009Z,22.3
2017-01-05T02:56:54.602Z,22.28
2017-01-05T02:57:35.191Z,22.3
2017-01-05T02:58:15.789Z,22.27
2017-01-05T02:58:56.378Z,22.35
2017-01-05T02:59:36.986Z,22.31
2017-01-05T03:00:17.575Z,22.31
2017-01-05T03:00:58.153Z,22.31
2017-01-05T03:01:38.757Z,22.3
2017-01-05T03:02:19.346Z,22.31
2017-01-05T03:02:59.940Z,22.31
2017-01-05T03:03:40.541Z,22.27
2017-01-05T03:04:21.132Z,22.28
2017-01-05T03:05:01.718Z,22.28
2017-01-05T03:05:42.310Z,22.28
2017-01-05T03:06:22.896Z,22.3
2017-01-05T03:07:03.512Z,22.28
2017-01-05T03:07:44.109Z,22.25
2017-01-05T03:08:24.709Z,22.24
2017-01-05T03:09:05.304Z,22.28
2017-01-05T03:09:45.904Z,22.3
2017-01-05T03:10:26.489Z,22.25
2017-01-05T03:11:07.073Z,22.27
2017-01-05T03:11:47.667Z,22.31
2017-01-05T03:12:28.259Z,22.28
2017-01-05T03:13:08.853Z,22.28
2017-01-05T03:13:49.443Z,22.35
2017-01-05T03:14:30.033Z,22.31
2017-01-05T03:15:10.621Z,22.24
2017-01-05T03:15:51.210Z,22.27
2017-01-05T03:16:31.806Z,22.24
2017-01-05T03:17:12.403Z,22.25
2017-01-05T03:17:52.988Z,22.24
2017-01-05T03:18:33.579Z,22.25
2017-01-05T03:19:14.173Z,22.25
2017-01-05T03:19:54.763Z,22.25
2017-01-05T03:20:35.351Z,22.25
2017-01-05T03:21:15.940Z,22.3
2017-01-05T03:21:56.522Z,22.24
2017-01-05T03:22:37.108Z,22.25
2017-01-05T03:23:17.690Z,22.24
2017-01-05T03:23:58.295Z,22.27
2017-01-05T03:24:38.883Z,22.25
2017-01-05T03:25:19.472Z,22.28
2017-01-05T03:26:00.052Z,22.25
2017-01-05T03:26:40.643Z,22.24
2017-01-05T03:27:21.234Z,22.3
2017-01-05T03:28:01.825Z,22.25
2017-01-05T03:28:42.405Z,22.28
2017-01-05T03:29:22.992Z,22.22
2017-01-05T03:30:03.585Z,22.27
2017-01-05T03:30:44.194Z,22.25
2017-01-05T03:31:24.786Z,22.24
2017-01-05T03:32:05.367Z,22.3
2017-01-05T03:32:45.957Z,22.27
2017-01-05T03:33:26.541Z,22.27
2017-01-05T03:34:07.121Z,22.21
2017-01-05T03:34:47.707Z,22.24
2017-01-05T03:35:28.285Z,22.22
2017-01-05T03:36:08.860Z,22.28
2017-01-05T03:36:49.437Z,22.22
2017-01-05T03:37:30.017Z,22.25
2017-01-05T03:38:10.605Z,22.28
2017-01-05T03:38:51.191Z,22.3
2017-01-05T03:39:31.781Z,22.22
2017-01-05T03:40:12.362Z,22.2
2017-01-05T03:40:52.964Z,22.22
2017-01-05T03:41:33.554Z,22.25
2017-01-05T03:42:14.137Z,22.22
2017-01-05T03:42:54.722Z,22.2
2017-01-05T03:43:35.313Z,22.22
2017-01-05T03:44:15.896Z,22.2
2017-01-05T03:44:56.484Z,22.2
2017-01-05T03:45:37.077Z,22.24
2017-01-05T03:46:17.673Z,22.21
2017-01-05T03:46:58.252Z,22.21
2017-01-05T03:47:38.848Z,22.27
2017-01-05T03:48:19.432Z,22.24
2017-01-05T03:49:00.030Z,22.22
2017-01-05T03:49:40.627Z,22.21
2017-01-05T03:50:21.198Z,22.21
2017-01-05T03:51:01.789Z,22.12
2017-01-05T03:51:42.373Z,22.2
2017-01-05T03:52:22.955Z,22.24
2017-01-05T03:53:03.546Z,22.21
2017-01-05T03:53:44.139Z,22.15
2017-01-05T03:54:24.734Z,22.15
2017-01-05T03:55:05.317Z,22.17
2017-01-05T03:55:45.898Z,22.17
2017-01-05T03:56:26.488Z,22.21
2017-01-05T03:57:07.080Z,22.17
2017-01-05T03:57:47.663Z,22.15
2017-01-05T03:58:28.247Z,22.14
2017-01-05T03:59:08.846Z,22.15
2017-01-05T03:59:49.422Z,22.14
2017-01-05T04:00:30.003Z,22.12
2017-01-05T04:01:10.589Z,22.2
2017-01-05T04:01:51.174Z,22.17
2017-01-05T04:02:31.771Z,22.14
2017-01-05T04:03:12.357Z,22.17
2017-01-05T04:03:52.935Z,22.17
2017-01-05T04:04:33.516Z,22.12
2017-01-05T04:05:14.096Z,22.17
2017-01-05T04:05:54.687Z,22.15
2017-01-05T04:06:35.274Z,22.15
2017-01-05T04:07:15.853Z,22.12
2017-01-05T04:07:56.442Z,22.12
2017-01-05T04:08:37.038Z,22.21
2017-01-05T04:09:17.634Z,22.15
2017-01-05T04:09:58.231Z,22.21
2017-01-05T04:10:38.831Z,22.18
2017-01-05T04:11:19.428Z,22.14
2017-01-05T04:12:00.024Z,22.15
2017-01-05T04:12:40.603Z,22.17
2017-01-05T04:13:21.188Z,22.2
2017-01-05T04:14:01.776Z,22.24
2017-01-05T04:14:42.402Z,22.2
2017-01-05T04:15:23.000Z,22.18
2017-01-05T04:16:03.593Z,22.2
2017-01-05T04:16:44.201Z,22.21
2017-01-05T04:17:24.782Z,22.14
2017-01-05T04:18:05.363Z,22.15
2017-01-05T04:18:45.958Z,22.17
2017-01-05T04:19:26.557Z,22.15
2017-01-05T04:20:07.157Z,22.18
2017-01-05T04:20:47.749Z,22.14
2017-01-05T04:21:28.332Z,22.14
2017-01-05T04:22:08.924Z,22.14
2017-01-05T04:22:49.505Z,22.14
2017-01-05T04:23:30.100Z,22.12
2017-01-05T04:24:10.681Z,22.17
2017-01-05T04:24:51.266Z,22.14
2017-01-05T04:25:31.860Z,22.17
2017-01-05T04:26:12.436Z,22.18
2017-01-05T04:26:53.027Z,22.12
2017-01-05T04:27:33.615Z,22.17
2017-01-05T04:28:14.187Z,22.18
2017-01-05T04:28:54.773Z,22.12
2017-01-05T04:29:35.367Z,22.18
2017-01-05T04:30:15.946Z,22.14
2017-01-05T04:30:56.531Z,22.14
2017-01-05T04:31:37.118Z,22.15
2017-01-05T04:32:17.709Z,22.17
2017-01-05T04:32:58.313Z,22.21
2017-01-05T04:33:38.900Z,22.09
2017-01-05T04:34:19.502Z,22.12
2017-01-05T04:35:00.090Z,22.17
2017-01-05T04:35:40.669Z,22.1
2017-01-05T04:36:22.061Z,22.12
2017-01-05T04:37:02.642Z,22.17
2017-01-05T04:37:43.224Z,22.17
2017-01-05T04:38:23.831Z,22.1
2017-01-05T04:39:04.426Z,22.14
2017-01-05T04:39:45.016Z,22.09
2017-01-05T04:40:25.605Z,22.17
2017-01-05T04:41:06.192Z,22.18
2017-01-05T04:41:46.794Z,22.17
2017-01-05T04:42:27.393Z,22.14
2017-01-05T04:43:07.980Z,22.1
2017-01-05T04:43:48.566Z,22.15
2017-01-05T04:44:29.156Z,22.14
2017-01-05T04:45:09.769Z,22.09
2017-01-05T04:45:50.359Z,22.15
2017-01-05T04:46:30.936Z,22.07
2017-01-05T04:47:11.519Z,22.12
2017-01-05T04:47:52.110Z,22.15
2017-01-05T04:48:32.702Z,22.17
2017-01-05T04:49:13.288Z,22.17
2017-01-05T04:49:53.881Z,22.14
2017-01-05T04:50:34.478Z,22.12
2017-01-05T04:51:15.070Z,22.15
2017-01-05T04:51:55.672Z,22.17
2017-01-05T04:52:36.277Z,22.18
2017-01-05T04:53:16.859Z,22.15
2017-01-05T04:53:57.444Z,22.12
2017-01-05T04:54:38.036Z,22.14
2017-01-05T04:55:18.616Z,22.17
2017-01-05T04:55:59.211Z,22.15
2017-01-05T04:56:39.801Z,22.12
2017-01-05T04:57:20.392Z,22.12
2017-01-05T04:58:00.971Z,22.12
2017-01-05T04:58:41.551Z,22.1
2017-01-05T04:59:22.144Z,22.17
2017-01-05T05:00:02.728Z,22.12
2017-01-05T05:00:43.319Z,22.15
2017-01-05T05:01:23.903Z,22.17
2017-01-05T05:02:04.492Z,22.12
2017-01-05T05:02:45.070Z,22.18
2017-01-05T05:03:25.665Z,22.2
2017-01-05T05:04:06.267Z,22.15
2017-01-05T05:04:46.870Z,22.14
2017-01-05T05:05:27.453Z,22.12
2017-01-05T05:06:08.037Z,22.18
2017-01-05T05:06:48.620Z,22.15
2017-01-05T05:07:29.202Z,22.15
2017-01-05T05:08:09.788Z,22.14
2017-01-05T05:08:50.373Z,22.09
2017-01-05T05:09:30.958Z,22.17
2017-01-05T05:10:11.556Z,22.1
2017-01-05T05:10:52.161Z,22.07
2017-01-05T05:11:32.754Z,22.14
2017-01-05T05:12:13.337Z,22.1
2017-01-05T05:12:53.937Z,22.12
2017-01-05T05:13:34.525Z,22.12
2017-01-05T05:14:15.122Z,22.07
2017-01-05T05:14:55.713Z,22.07
2017-01-05T05:15:36.313Z,22.17
2017-01-05T05:16:16.903Z,22.12
2017-01-05T05:16:57.483Z,22.1
2017-01-05T05:17:38.073Z,22.14
2017-01-05T05:18:18.668Z,22.14
2017-01-05T05:18:59.253Z,22.1
2017-01-05T05:19:39.836Z,22.1
2017-01-05T05:20:20.430Z,22.12
2017-01-05T05:21:01.010Z,22.14
2017-01-05T05:21:41.590Z,22.1
2017-01-05T05:22:22.175Z,22.03
2017-01-05T05:23:02.766Z,22.09
2017-01-05T05:23:43.347Z,22.12
2017-01-05T05:24:23.943Z,22.12
2017-01-05T05:25:04.540Z,22.09
2017-01-05T05:25:45.118Z,22.07
2017-01-05T05:26:25.712Z,22.07
2017-01-05T05:27:06.308Z,22.12
2017-01-05T05:27:46.887Z,22.12
2017-01-05T05:28:27.477Z,22.12
2017-01-05T05:29:08.059Z,22.14
2017-01-05T05:29:48.652Z,22.1
2017-01-05T05:30:29.232Z,22.12
2017-01-05T05:31:09.825Z,22.1
2017-01-05T05:31:50.411Z,22.12
2017-01-05T05:32:31.005Z,22.12
2017-01-05T05:33:11.587Z,22.12
2017-01-05T05:33:52.182Z,22.14
2017-01-05T05:34:32.773Z,22.1
2017-01-05T05:35:13.358Z,22.12
2017-01-05T05:35:53.942Z,22.15
2017-01-05T05:36:34.529Z,22.09
2017-01-05T05:37:15.117Z,22.12
2017-01-05T05:37:55.696Z,22.07
2017-01-05T05:38:36.279Z,22.09
2017-01-05T05:39:16.874Z,22.12
2017-01-05T05:39:57.478Z,22.12
2017-01-05T05:40:38.056Z,22.09
2017-01-05T05:41:18.641Z,22.12
2017-01-05T05:41:59.240Z,22.14
2017-01-05T05:42:39.828Z,22.09
2017-01-05T05:43:20.419Z,22.14
2017-01-05T05:44:01.003Z,22.07
2017-01-05T05:44:41.597Z,22.1
2017-01-05T05:45:22.194Z,22.09
2017-01-05T05:46:02.809Z,22.1
2017-01-05T05:46:43.410Z,22.09
2017-01-05T05:47:24.010Z,22.12
2017-01-05T05:48:04.611Z,22.1
2017-01-05T05:48:45.200Z,22.14
2017-01-05T05:49:25.784Z,22.12
2017-01-05T05:50:06.370Z,22.14
2017-01-05T05:50:46.960Z,22.1
2017-01-05T05:51:27.535Z,22.06
2017-01-05T05:52:08.129Z,22.07
2017-01-05T05:52:48.722Z,22.14
2017-01-05T05:53:29.316Z,22.07
2017-01-05T05:54:09.909Z,22.06
2017-01-05T05:54:50.498Z,22.1
2017-01-05T05:55:31.070Z,22.06
2017-01-05T05:56:11.677Z,22.1
2017-01-05T05:56:52.269Z,22.1
2017-01-05T05:57:32.847Z,22.07
2017-01-05T05:58:13.428Z,22.14
2017-01-05T05:58:54.030Z,22.12
2017-01-05T05:59:34.625Z,22.12
2017-01-05T06:00:15.209Z,22.15
2017-01-05T06:00:55.794Z,22.12
2017-01-05T06:01:36.380Z,22.15
2017-01-05T06:02:16.971Z,22.1
2017-01-05T06:02:57.571Z,22.03
2017-01-05T06:03:38.159Z,22.09
2017-01-05T06:04:18.742Z,22.12
2017-01-05T06:04:59.328Z,22.14
2017-01-05T06:05:39.917Z,21.99
2017-01-05T06:06:20.506Z,22.12
2017-01-05T06:07:01.103Z,22.1
2017-01-05T06:07:41.690Z,22.1
2017-01-05T06:08:22.291Z,22.12
2017-01-05T06:09:02.881Z,22.06
2017-01-05T06:09:43.468Z,22.1
2017-01-05T06:10:24.037Z,22.05
2017-01-05T06:11:04.627Z,22.07
2017-01-05T06:11:45.233Z,22.09
2017-01-05T06:12:25.835Z,22.07
2017-01-05T06:13:06.417Z,22.07
2017-01-05T06:13:46.994Z,22.09
2017-01-05T06:14:27.593Z,22.12
2017-01-05T06:15:08.188Z,22.09
2017-01-05T06:15:48.772Z,22.07
2017-01-05T06:16:29.375Z,22.14
2017-01-05T06:17:09.973Z,22
2017-01-05T06:17:50.546Z,22.07
2017-01-05T06:18:31.135Z,22.17
2017-01-05T06:19:11.712Z,22.07
2017-01-05T06:19:52.298Z,22.1
2017-01-05T06:20:32.878Z,22
2017-01-05T06:21:13.460Z,22.03
2017-01-05T06:21:54.047Z,22.09
2017-01-05T06:22:34.635Z,22.05
2017-01-05T06:23:15.226Z,22.09
2017-01-05T06:23:55.811Z,22.02
2017-01-05T06:24:36.387Z,22.09
2017-01-05T06:25:16.978Z,22.03
2017-01-05T06:25:57.573Z,22.02
2017-01-05T06:26:38.176Z,22.02
2017-01-05T06:27:18.775Z,22.03
2017-01-05T06:27:59.398Z,22.06
2017-01-05T06:28:39.983Z,22.05
2017-01-05T06:29:20.573Z,21.98
2017-01-05T06:30:01.155Z,22.03
2017-01-05T06:30:41.738Z,22.05
2017-01-05T06:31:22.330Z,22.09
2017-01-05T06:32:02.928Z,21.98
2017-01-05T06:32:43.525Z,22.06
2017-01-05T06:33:24.086Z,22.07
2017-01-05T06:34:04.685Z,21.98
2017-01-05T06:34:45.261Z,22.05
2017-01-05T06:35:25.844Z,22.12
2017-01-05T06:36:06.441Z,22.14
2017-01-05T06:36:47.036Z,22.06
2017-01-05T06:37:27.645Z,22.02
2017-01-05T06:38:08.223Z,22.03
2017-01-05T06:38:48.812Z,21.98
2017-01-05T06:39:29.401Z,22.12
2017-01-05T06:40:09.975Z,22.1
2017-01-05T06:40:50.553Z,21.98
2017-01-05T06:41:31.143Z,22.09
2017-01-05T06:42:11.730Z,22.1
2017-01-05T06:42:52.309Z,22.03
2017-01-05T06:43:32.906Z,22.15
2017-01-05T06:44:13.488Z,22.1
2017-01-05T06:44:54.072Z,22.06
2017-01-05T06:45:34.665Z,22
2017-01-05T06:46:15.255Z,22.02
2017-01-05T06:46:55.839Z,22.07
2017-01-05T06:47:36.413Z,22.17
2017-01-05T06:48:17.012Z,22.07
2017-01-05T06:48:57.601Z,22.06
2017-01-05T06:49:38.188Z,22.09
2017-01-05T06:50:18.792Z,22.09
2017-01-05T06:50:59.380Z,22.07
2017-01-05T06:51:39.970Z,22.09
2017-01-05T06:52:20.573Z,22.02
2017-01-05T06:53:01.158Z,22.1
2017-01-05T06:53:41.760Z,22.12
2017-01-05T06:54:22.362Z,21.98
2017-01-05T06:55:02.955Z,22.05
2017-01-05T06:55:43.544Z,22.09
2017-01-05T06:56:24.146Z,21.94
2017-01-05T06:57:04.730Z,22.12
2017-01-05T06:57:45.307Z,22.09
2017-01-05T06:58:25.884Z,22.03
2017-01-05T06:59:06.485Z,22.09
2017-01-05T06:59:47.081Z,21.98
2017-01-05T07:00:27.664Z,22.07
2017-01-05T07:01:08.252Z,22
2017-01-05T07:01:48.839Z,22.09
2017-01-05T07:02:29.420Z,22.07
2017-01-05T07:03:10.006Z,22.03
2017-01-05T07:03:50.611Z,22.02
2017-01-05T07:04:31.191Z,21.96
2017-01-05T07:05:11.772Z,21.99
2017-01-05T07:05:52.371Z,21.96
2017-01-05T07:06:32.979Z,22.03
2017-01-05T07:07:13.574Z,22.06
2017-01-05T07:07:54.169Z,22.02
2017-01-05T07:08:34.755Z,22.06
2017-01-05T07:09:15.331Z,22.07
2017-01-05T07:09:55.920Z,21.98
2017-01-05T07:10:36.525Z,22.05
2017-01-05T07:11:17.127Z,22.02
2017-01-05T07:11:57.721Z,22.07
2017-01-05T07:12:38.310Z,22
2017-01-05T07:13:18.897Z,22.03
2017-01-05T07:13:59.481Z,22.06
2017-01-05T07:14:40.063Z,22.09
2017-01-05T07:15:20.652Z,22.09
2017-01-05T07:16:01.245Z,21.96
2017-01-05T07:16:41.845Z,21.92
2017-01-05T07:17:22.436Z,22.1
2017-01-05T07:18:03.036Z,21.99
2017-01-05T07:18:43.640Z,22.07
2017-01-05T07:19:24.235Z,22
2017-01-05T07:20:04.833Z,22.07
2017-01-05T07:20:45.414Z,21.96
2017-01-05T07:21:26.015Z,21.98
2017-01-05T07:22:06.623Z,22.06
2017-01-05T07:22:47.212Z,21.98
2017-01-05T07:23:27.819Z,22.03
2017-01-05T07:24:08.423Z,22
2017-01-05T07:24:49.024Z,22.06
2017-01-05T07:25:29.633Z,22
2017-01-05T07:26:10.223Z,22.07
2017-01-05T07:26:50.826Z,21.98
2017-01-05T07:27:31.425Z,21.98
2017-01-05T07:28:12.022Z,22.1
2017-01-05T07:28:52.628Z,22.09
2017-01-05T07:29:33.209Z,22.14
2017-01-05T07:30:13.802Z,22.1
2017-01-05T07:30:54.417Z,22.1
2017-01-05T07:31:35.014Z,22.1
2017-01-05T07:32:15.599Z,22.05
2017-01-05T07:32:56.181Z,22.06
2017-01-05T07:33:36.796Z,22.12
2017-01-05T07:34:17.384Z,22.12
2017-01-05T07:34:57.990Z,22.09
2017-01-05T07:35:38.584Z,22.05
2017-01-05T07:36:19.170Z,22.12
2017-01-05T07:36:59.778Z,22.05
2017-01-05T07:37:40.358Z,22.07
2017-01-05T07:38:20.946Z,22.03
2017-01-05T07:39:01.538Z,22.09
2017-01-05T07:39:42.130Z,21.99
2017-01-05T07:40:22.733Z,21.99
2017-01-05T07:41:03.331Z,22.03
2017-01-05T07:41:43.908Z,22.06
2017-01-05T07:42:24.502Z,22.07
2017-01-05T07:43:05.078Z,22.05
2017-01-05T07:43:45.658Z,22.06
2017-01-05T07:44:26.244Z,22.12
2017-01-05T07:45:06.856Z,21.98
2017-01-05T07:45:47.452Z,22
2017-01-05T07:46:28.033Z,22.1
2017-01-05T07:47:08.612Z,22.09
2017-01-05T07:47:49.216Z,22.1
2017-01-05T07:48:29.812Z,22.12
2017-01-05T07:49:10.407Z,22.15
2017-01-05T07:49:51.005Z,22.1
2017-01-05T07:50:31.596Z,21.99
2017-01-05T07:51:12.179Z,22.03
2017-01-05T07:51:52.767Z,21.98
2017-01-05T07:52:33.367Z,22.09
2017-01-05T07:53:13.952Z,22.07
2017-01-05T07:53:54.544Z,22.05
2017-01-05T07:54:35.140Z,21.98
2017-01-05T07:55:15.743Z,22.05
2017-01-05T07:55:56.336Z,22.05
2017-01-05T07:56:36.932Z,22.07
2017-01-05T07:57:17.525Z,22
2017-01-05T07:57:58.118Z,22.06
2017-01-05T07:58:38.698Z,22.09
2017-01-05T07:59:19.298Z,22.14
2017-01-05T07:59:59.887Z,22.09
2017-01-05T08:00:40.483Z,22.09
2017-01-05T08:01:21.088Z,22.06
2017-01-05T08:02:01.683Z,22.14
2017-01-05T08:02:42.249Z,22.07
2017-01-05T08:03:22.849Z,22.1
2017-01-05T08:04:03.441Z,22.15
2017-01-05T08:04:44.050Z,22.14
2017-01-05T08:05:24.669Z,22
2017-01-05T08:06:05.264Z,22
2017-01-05T08:06:45.867Z,22.12
2017-01-05T08:07:26.454Z,22.02
2017-01-05T08:08:07.045Z,22.09
2017-01-05T08:08:47.622Z,22.12
2017-01-05T08:09:28.219Z,22.15
2017-01-05T08:10:08.814Z,22.1
2017-01-05T08:10:49.411Z,22.05
2017-01-05T08:11:30.015Z,22.06
2017-01-05T08:12:10.609Z,22.12
2017-01-05T08:12:51.203Z,22.07
2017-01-05T08:13:31.779Z,22.09
2017-01-05T08:14:12.347Z,22.14
2017-01-05T08:14:52.930Z,22.09
2017-01-05T08:15:33.522Z,22.12
2017-01-05T08:16:14.138Z,22.12
2017-01-05T08:16:54.751Z,22.12
2017-01-05T08:17:35.351Z,22.1
2017-01-05T08:18:15.984Z,22.1
2017-01-05T08:18:56.573Z,22.1
2017-01-05T08:19:37.165Z,22.17
2017-01-05T08:20:17.763Z,22.17
2017-01-05T08:20:58.356Z,22.12
2017-01-05T08:21:38.944Z,22.1
2017-01-05T08:22:19.531Z,22.2
2017-01-05T08:23:00.132Z,22.18
2017-01-05T08:23:40.735Z,22.17
2017-01-05T08:24:21.323Z,22.17
2017-01-05T08:25:01.911Z,22.14
2017-01-05T08:25:42.525Z,22.15
2017-01-05T08:26:23.118Z,22.1
2017-01-05T08:27:03.697Z,22.17
2017-01-05T08:27:44.290Z,22.14
2017-01-05T08:28:24.866Z,22.21
2017-01-05T08:29:05.457Z,22.21
2017-01-05T08:29:46.058Z,22.14
2017-01-05T08:30:26.650Z,22.14
2017-01-05T08:31:07.242Z,22.1
2017-01-05T08:31:47.852Z,22.12
2017-01-05T08:32:28.441Z,22.22
2017-01-05T08:33:09.038Z,22.12
2017-01-05T08:33:49.624Z,22.14
2017-01-05T08:34:30.217Z,22.14
2017-01-05T08:35:10.817Z,22.14
2017-01-05T08:35:51.443Z,22.15
2017-01-05T08:36:32.038Z,22.18
2017-01-05T08:37:12.636Z,22.25
2017-01-05T08:37:53.205Z,22.18
2017-01-05T08:38:33.782Z,22.25
2017-01-05T08:39:14.380Z,22.25
2017-01-05T08:39:54.988Z,22.18
2017-01-05T08:40:35.604Z,22.28
2017-01-05T08:41:16.194Z,22.2
2017-01-05T08:41:56.781Z,22.21
2017-01-05T08:42:37.373Z,22.2
2017-01-05T08:43:17.952Z,22.25
2017-01-05T08:43:58.534Z,22.27
2017-01-05T08:44:39.162Z,22.27
2017-01-05T08:45:19.770Z,22.24
2017-01-05T08:46:00.373Z,22.22